Saranac, Michigan
Current Conditions -  °F | °C
As of 1:34 AM on Wednesday 26 Nov 2014 (Local Time) from KY70 Reporting Station
Overcast Overcast  
Wind Chill: 30°   Ceiling: 2400
Heat Index: 30°   Visibility: 10mi
Dew Point: 21°   Wind: 3mph
Humidity: 71%   Direction: 210°SSW
Pressure: 30.17"   Gusts: NA
Location:  42.93°N, 85.21°W
Report Text: KY70 260634Z AUTO 21003KT 10SM OVC024 M01/M06 A3017 RMK AO2 T10121059
Loading
Personal Weather Stations






























Interactive Weather Map New forecast layout! Learn more

10-Day Weather Forecast

Advertisements
Track Severe Weather on mobile